createdAt,value
2023-04-15T00:00:09.076Z,92.86
2023-04-15T00:01:09.043Z,91.53
2023-04-15T00:02:09.036Z,92.21
2023-04-15T00:03:09.154Z,91.35
2023-04-15T00:04:08.989Z,91.94
2023-04-15T00:05:08.911Z,91.42
2023-04-15T00:06:08.890Z,90.54
2023-04-15T00:07:08.835Z,90.22
2023-04-15T00:08:08.835Z,90.17
2023-04-15T00:09:08.773Z,89.65
2023-04-15T00:10:08.758Z,89.04
2023-04-15T00:11:08.707Z,89.28
2023-04-15T00:12:08.660Z,90.21
2023-04-15T00:13:08.626Z,89.87
2023-04-15T00:14:08.581Z,89.47
2023-04-15T00:15:08.550Z,87.66
2023-04-15T00:16:08.522Z,89.10
2023-04-15T00:17:08.518Z,87.94
2023-04-15T00:18:08.491Z,86.49
2023-04-15T00:19:08.633Z,87.72
2023-04-15T00:20:08.491Z,86.98
2023-04-15T00:21:08.523Z,87.66
2023-04-15T00:22:08.459Z,86.94
2023-04-15T00:23:08.491Z,86.30
2023-04-15T00:24:08.459Z,85.97
2023-04-15T00:25:08.462Z,85.88
2023-04-15T00:26:08.452Z,87.02
2023-04-15T00:27:08.427Z,86.06
2023-04-15T00:28:08.425Z,85.49
2023-04-15T00:29:08.402Z,85.72
2023-04-15T00:30:08.406Z,85.94
2023-04-15T00:31:08.414Z,86.52
2023-04-15T00:32:08.370Z,86.00
2023-04-15T00:33:08.361Z,84.54
2023-04-15T00:34:08.357Z,85.59
2023-04-15T00:35:08.348Z,84.94
2023-04-15T00:36:08.340Z,85.28
2023-04-15T00:37:08.318Z,84.90
2023-04-15T00:38:08.315Z,85.03
2023-04-15T00:39:08.293Z,84.48
2023-04-15T00:40:08.289Z,84.13
2023-04-15T00:41:08.280Z,84.08
2023-04-15T00:42:08.264Z,84.06
2023-04-15T00:43:08.248Z,84.63
2023-04-15T00:44:08.239Z,83.76
2023-04-15T00:45:08.231Z,83.07
2023-04-15T00:46:08.278Z,83.36
2023-04-15T00:47:08.215Z,84.03
2023-04-15T00:48:08.197Z,83.21
2023-04-15T00:49:08.202Z,84.08
2023-04-15T00:50:08.205Z,83.09
2023-04-15T00:51:08.173Z,83.21
2023-04-15T00:52:08.164Z,82.82
2023-04-15T00:53:08.164Z,82.47
2023-04-15T00:54:08.159Z,83.90
2023-04-15T00:55:08.155Z,83.21
2023-04-15T00:56:08.153Z,81.44
2023-04-15T00:57:08.135Z,82.51
2023-04-15T00:58:08.131Z,80.70
2023-04-15T00:59:08.118Z,81.91
2023-04-15T01:00:08.141Z,81.58
2023-04-15T01:01:08.160Z,81.32
2023-04-15T01:02:08.319Z,81.96
2023-04-15T01:03:08.269Z,79.42
2023-04-15T01:04:08.145Z,81.36
2023-04-15T01:05:08.072Z,79.61
2023-04-15T01:06:08.066Z,80.40
2023-04-15T01:07:08.056Z,78.72
2023-04-15T01:08:08.053Z,80.56
2023-04-15T01:09:08.068Z,79.57
2023-04-15T01:10:08.053Z,79.63
2023-04-15T01:11:08.049Z,78.85
2023-04-15T01:12:08.058Z,77.91
2023-04-15T01:13:08.043Z,78.26
2023-04-15T01:14:08.062Z,77.90
2023-04-15T01:15:08.051Z,78.55
2023-04-15T01:16:08.077Z,77.82
2023-04-15T01:17:08.035Z,78.39
2023-04-15T01:18:08.033Z,78.55
2023-04-15T01:19:08.017Z,77.34
2023-04-15T01:20:08.049Z,78.46
2023-04-15T01:21:08.015Z,77.40
2023-04-15T01:22:08.002Z,76.84
2023-04-15T01:23:08.008Z,77.37
2023-04-15T01:24:08.008Z,76.56
2023-04-15T01:25:08.025Z,76.62
2023-04-15T01:26:07.993Z,76.89
2023-04-15T01:27:07.991Z,75.95
2023-04-15T01:28:07.982Z,77.38
2023-04-15T01:29:07.987Z,75.86
2023-04-15T01:30:07.974Z,76.01
2023-04-15T01:31:08.045Z,76.75
2023-04-15T01:32:07.963Z,76.90
2023-04-15T01:33:07.967Z,75.06
2023-04-15T01:34:07.964Z,74.95
2023-04-15T01:35:07.961Z,76.04
2023-04-15T01:36:07.947Z,75.58
2023-04-15T01:37:07.939Z,75.23
2023-04-15T01:38:07.943Z,74.23
2023-04-15T01:39:07.944Z,76.49
2023-04-15T01:40:07.943Z,74.34
2023-04-15T01:41:08.136Z,73.72
2023-04-15T01:42:07.931Z,74.90
2023-04-15T01:43:08.095Z,75.99
2023-04-15T01:44:07.951Z,73.27
2023-04-15T01:45:07.946Z,74.10
2023-04-15T01:46:07.948Z,71.85
2023-04-15T01:47:07.932Z,72.98
2023-04-15T01:48:07.936Z,72.08
2023-04-15T01:49:07.932Z,72.81
2023-04-15T01:50:07.943Z,74.41
2023-04-15T01:51:07.928Z,70.33
2023-04-15T01:52:07.938Z,72.26
2023-04-15T01:53:07.929Z,72.15
2023-04-15T01:54:07.971Z,70.97
2023-04-15T01:55:07.933Z,72.60
2023-04-15T01:56:07.934Z,72.77
2023-04-15T01:57:07.935Z,71.34
2023-04-15T01:58:07.938Z,71.05
2023-04-15T01:59:07.955Z,69.44
2023-04-15T02:00:07.947Z,70.47
2023-04-15T02:01:08.017Z,70.41
2023-04-15T02:02:08.018Z,70.39
2023-04-15T02:03:08.032Z,69.73
2023-04-15T02:04:08.082Z,70.21
2023-04-15T02:05:07.963Z,68.38
2023-04-15T02:06:08.010Z,69.30
2023-04-15T02:07:07.990Z,69.09
2023-04-15T02:08:07.987Z,69.39
2023-04-15T02:09:07.996Z,69.78
2023-04-15T02:10:08.003Z,69.26
2023-04-15T02:11:08.005Z,68.18
2023-04-15T02:12:08.016Z,68.44
2023-04-15T02:13:08.014Z,69.53
2023-04-15T02:14:08.019Z,68.65
2023-04-15T02:15:08.038Z,66.40
2023-04-15T02:16:08.053Z,68.21
2023-04-15T02:17:08.095Z,65.69
2023-04-15T02:18:08.046Z,66.89
2023-04-15T02:19:08.086Z,66.97
2023-04-15T02:20:08.057Z,67.61
2023-04-15T02:21:08.061Z,66.18
2023-04-15T02:22:08.073Z,66.27
2023-04-15T02:23:08.077Z,65.91
2023-04-15T02:24:08.083Z,65.66
2023-04-15T02:25:08.094Z,65.68
2023-04-15T02:26:08.113Z,66.37
2023-04-15T02:27:08.096Z,65.75
2023-04-15T02:28:08.114Z,65.10
2023-04-15T02:29:08.134Z,64.61
2023-04-15T02:30:08.132Z,64.64
2023-04-15T02:31:08.157Z,64.07
2023-04-15T02:32:08.188Z,63.76
2023-04-15T02:33:08.773Z,64.58
2023-04-15T02:34:08.181Z,64.81
2023-04-15T02:35:08.143Z,62.50
2023-04-15T02:36:08.161Z,63.72
2023-04-15T02:37:08.163Z,62.87
2023-04-15T02:38:08.175Z,62.00
2023-04-15T02:39:08.185Z,65.05
2023-04-15T02:40:08.208Z,65.27
2023-04-15T02:41:08.204Z,61.96
2023-04-15T02:42:08.222Z,62.54
2023-04-15T02:43:08.224Z,62.86
2023-04-15T02:44:09.329Z,63.87
2023-04-15T02:45:08.419Z,64.09
2023-04-15T02:46:08.526Z,62.87
2023-04-15T02:47:08.434Z,63.90
2023-04-15T02:48:08.419Z,62.45
2023-04-15T02:49:08.436Z,62.17
2023-04-15T02:50:08.777Z,62.05
2023-04-15T02:51:08.433Z,62.34
2023-04-15T02:52:08.436Z,62.97
2023-04-15T02:53:08.445Z,61.67
2023-04-15T02:54:08.454Z,62.72
2023-04-15T02:55:08.485Z,60.46
2023-04-15T02:56:08.481Z,62.56
2023-04-15T02:57:08.498Z,61.93
2023-04-15T02:58:08.494Z,60.63
2023-04-15T02:59:08.506Z,60.27
2023-04-15T03:00:08.512Z,62.12
2023-04-15T03:01:08.526Z,60.64
2023-04-15T03:02:08.591Z,61.47
2023-04-15T03:03:08.688Z,60.80
2023-04-15T03:04:08.580Z,59.70
2023-04-15T03:05:08.540Z,60.94
2023-04-15T03:06:08.544Z,59.98
2023-04-15T03:07:08.593Z,60.59
2023-04-15T03:08:09.291Z,59.98
2023-04-15T03:09:08.577Z,59.62
2023-04-15T03:10:08.601Z,60.91
2023-04-15T03:11:08.599Z,60.05
2023-04-15T03:12:08.601Z,58.55
2023-04-15T03:13:08.642Z,58.53
2023-04-15T03:14:08.614Z,58.75
2023-04-15T03:15:08.633Z,59.47
2023-04-15T03:16:08.676Z,59.62
2023-04-15T03:17:08.659Z,57.36
2023-04-15T03:18:08.660Z,57.33
2023-04-15T03:19:08.692Z,57.14
2023-04-15T03:20:08.745Z,57.24
2023-04-15T03:21:08.710Z,58.30
2023-04-15T03:22:08.719Z,56.35
2023-04-15T03:23:08.721Z,57.91
2023-04-15T03:24:08.740Z,56.57
2023-04-15T03:25:08.748Z,56.93
2023-04-15T03:26:08.774Z,56.15
2023-04-15T03:27:08.770Z,56.46
2023-04-15T03:28:08.814Z,56.67
2023-04-15T03:29:08.809Z,54.44
2023-04-15T03:30:08.841Z,55.96
2023-04-15T03:31:08.876Z,55.63
2023-04-15T03:32:08.858Z,54.43
2023-04-15T03:33:08.871Z,54.81
2023-04-15T03:34:08.890Z,54.19
2023-04-15T03:35:08.894Z,55.37
2023-04-15T03:36:08.906Z,55.31
2023-04-15T03:37:08.921Z,55.13
2023-04-15T03:38:08.934Z,53.68
2023-04-15T03:39:08.952Z,55.35
2023-04-15T03:40:08.968Z,55.26
2023-04-15T03:41:08.970Z,53.36
2023-04-15T03:42:09.002Z,52.44
2023-04-15T03:43:09.005Z,53.28
2023-04-15T03:44:09.030Z,53.08
2023-04-15T03:45:09.202Z,52.98
2023-04-15T03:46:09.071Z,50.99
2023-04-15T03:47:09.075Z,52.11
2023-04-15T03:48:17.341Z,53.33
2023-04-15T03:49:10.052Z,53.39
2023-04-15T03:50:09.030Z,53.34
2023-04-15T03:51:08.995Z,53.54
2023-04-15T03:52:08.962Z,53.06
2023-04-15T03:53:08.946Z,53.34
2023-04-15T03:54:08.915Z,51.18
2023-04-15T03:55:08.896Z,50.56
2023-04-15T03:56:08.876Z,52.42
2023-04-15T03:57:08.862Z,51.49
2023-04-15T03:58:08.847Z,50.50
2023-04-15T03:59:08.816Z,50.83
2023-04-15T04:00:08.791Z,50.47
2023-04-15T04:01:08.761Z,50.92
2023-04-15T04:02:08.821Z,50.29
2023-04-15T04:03:09.049Z,50.58
2023-04-15T04:04:08.885Z,52.15
2023-04-15T04:05:08.800Z,50.25
2023-04-15T04:06:08.813Z,49.56
2023-04-15T04:07:08.881Z,49.51
2023-04-15T04:08:08.835Z,49.16
2023-04-15T04:09:08.851Z,49.20
2023-04-15T04:10:08.875Z,49.17
2023-04-15T04:11:08.882Z,48.23
2023-04-15T04:12:08.913Z,49.99
2023-04-15T04:13:08.920Z,49.90
2023-04-15T04:14:08.942Z,48.16
2023-04-15T04:15:08.950Z,49.39
2023-04-15T04:16:09.013Z,46.74
2023-04-15T04:17:09.024Z,47.28
2023-04-15T04:18:08.999Z,46.63
2023-04-15T04:19:09.040Z,48.31
2023-04-15T04:20:09.054Z,49.64
2023-04-15T04:21:10.082Z,49.68
2023-04-15T04:22:09.013Z,49.39
2023-04-15T04:23:08.975Z,49.19
2023-04-15T04:24:08.959Z,47.60
2023-04-15T04:25:08.931Z,47.62
2023-04-15T04:26:08.903Z,47.54
2023-04-15T04:27:08.876Z,46.86
2023-04-15T04:28:08.866Z,44.47
2023-04-15T04:29:08.836Z,47.08
2023-04-15T04:30:08.817Z,44.99
2023-04-15T04:31:08.813Z,45.09
2023-04-15T04:32:08.850Z,47.20
2023-04-15T04:33:08.792Z,47.29
2023-04-15T04:34:08.820Z,44.62
2023-04-15T04:35:08.849Z,45.45
2023-04-15T04:36:08.860Z,44.81
2023-04-15T04:37:08.882Z,43.10
2023-04-15T04:38:08.908Z,45.71
2023-04-15T04:39:08.929Z,46.22
2023-04-15T04:40:08.949Z,43.67
2023-04-15T04:41:08.985Z,45.69
2023-04-15T04:42:08.990Z,44.04
2023-04-15T04:43:09.016Z,44.56
2023-04-15T04:44:09.042Z,44.61
2023-04-15T04:45:09.068Z,45.24
2023-04-15T04:46:09.137Z,43.41
2023-04-15T04:47:09.097Z,42.69
2023-04-15T04:48:09.111Z,42.53
2023-04-15T04:49:09.147Z,44.07
2023-04-15T04:50:09.180Z,41.37
2023-04-15T04:51:09.183Z,42.61
2023-04-15T04:52:09.216Z,43.63
2023-04-15T04:53:09.235Z,42.22
2023-04-15T04:54:09.256Z,41.73
2023-04-15T04:55:09.285Z,41.79
2023-04-15T04:56:09.291Z,41.80
2023-04-15T04:57:09.314Z,40.95
2023-04-15T04:58:09.333Z,41.98
2023-04-15T04:59:09.354Z,41.21
2023-04-15T05:00:09.384Z,41.46
2023-04-15T05:01:09.408Z,43.74
2023-04-15T05:02:09.469Z,43.05
2023-04-15T05:03:09.599Z,40.57
2023-04-15T05:04:09.646Z,39.26
2023-04-15T05:05:09.490Z,40.62
2023-04-15T05:06:09.522Z,42.03
2023-04-15T05:07:09.534Z,42.59
2023-04-15T05:08:09.552Z,39.42
2023-04-15T05:09:09.581Z,42.50
2023-04-15T05:10:09.833Z,41.95
2023-04-15T05:11:09.617Z,39.72
2023-04-15T05:12:09.651Z,41.22
2023-04-15T05:13:09.668Z,39.94
2023-04-15T05:14:09.691Z,40.45
2023-04-15T05:15:09.705Z,40.54
2023-04-15T05:16:09.769Z,40.31
2023-04-15T05:17:09.766Z,38.35
2023-04-15T05:18:09.783Z,40.37
2023-04-15T05:19:09.791Z,38.30
2023-04-15T05:20:09.826Z,38.20
2023-04-15T05:21:09.865Z,39.85
2023-04-15T05:22:09.870Z,37.94
2023-04-15T05:23:09.910Z,39.24
2023-04-15T05:24:09.927Z,39.60
2023-04-15T05:25:09.943Z,36.86
2023-04-15T05:26:09.954Z,38.17
2023-04-15T05:27:09.986Z,36.70
2023-04-15T05:28:09.998Z,36.72
2023-04-15T05:29:10.054Z,37.32
2023-04-15T05:30:11.620Z,37.23
2023-04-15T05:31:10.083Z,38.00
2023-04-15T05:32:09.992Z,36.87
2023-04-15T05:33:09.966Z,34.96
2023-04-15T05:34:09.935Z,37.35
2023-04-15T05:35:09.936Z,35.03
2023-04-15T05:36:09.896Z,34.35
2023-04-15T05:37:09.882Z,35.80
2023-04-15T05:38:09.864Z,37.47
2023-04-15T05:39:09.832Z,35.69
2023-04-15T05:40:09.811Z,36.12
2023-04-15T05:41:09.792Z,36.24
2023-04-15T05:42:09.764Z,35.57
2023-04-15T05:43:09.733Z,35.24
2023-04-15T05:44:09.699Z,35.27
2023-04-15T05:45:09.665Z,35.56
2023-04-15T05:46:09.656Z,36.30
2023-04-15T05:47:09.612Z,34.09
2023-04-15T05:48:09.584Z,35.39
2023-04-15T05:49:09.548Z,35.61
2023-04-15T05:50:09.532Z,34.20
2023-04-15T05:51:09.506Z,35.69
2023-04-15T05:52:09.481Z,34.56
2023-04-15T05:53:09.456Z,33.44
2023-04-15T05:54:09.422Z,34.39
2023-04-15T05:55:09.400Z,34.86
2023-04-15T05:56:09.377Z,34.22
2023-04-15T05:57:09.345Z,32.31
2023-04-15T05:58:09.412Z,34.71
2023-04-15T05:59:09.299Z,33.88
2023-04-15T06:00:09.264Z,34.02
2023-04-15T06:01:09.237Z,32.82
2023-04-15T06:02:09.269Z,33.63
2023-04-15T06:03:09.227Z,32.36
2023-04-15T06:04:09.233Z,32.05
2023-04-15T06:05:09.286Z,33.52
2023-04-15T06:06:09.094Z,34.41
2023-04-15T06:07:09.064Z,31.49
2023-04-15T06:08:09.038Z,31.47
2023-04-15T06:09:09.008Z,31.63
2023-04-15T06:10:08.981Z,31.14
2023-04-15T06:11:08.969Z,30.74
2023-04-15T06:12:08.947Z,31.54
2023-04-15T06:13:08.926Z,32.13
2023-04-15T06:14:08.884Z,33.24
2023-04-15T06:15:08.881Z,31.05
2023-04-15T06:16:08.853Z,31.20
2023-04-15T06:17:08.881Z,31.85
2023-04-15T06:18:08.857Z,29.96
2023-04-15T06:19:08.866Z,28.84
2023-04-15T06:20:08.898Z,30.27
2023-04-15T06:21:08.933Z,30.04
2023-04-15T06:22:08.919Z,28.14
2023-04-15T06:23:08.932Z,27.68
2023-04-15T06:24:08.947Z,30.29
2023-04-15T06:25:08.959Z,28.56
2023-04-15T06:26:08.971Z,29.03
2023-04-15T06:27:09.001Z,29.70
2023-04-15T06:28:08.989Z,26.52
2023-04-15T06:29:09.016Z,28.91
2023-04-15T06:30:09.031Z,28.02
2023-04-15T06:31:09.104Z,25.15
2023-04-15T06:32:09.070Z,29.90
2023-04-15T06:33:09.091Z,26.74
2023-04-15T06:34:09.131Z,28.53
2023-04-15T06:35:09.135Z,27.63
2023-04-15T06:36:09.145Z,28.09
2023-04-15T06:37:09.182Z,28.32
2023-04-15T06:38:09.182Z,25.00
2023-04-15T06:39:09.209Z,27.71
2023-04-15T06:40:09.214Z,26.40
2023-04-15T06:41:09.228Z,28.12
2023-04-15T06:42:09.239Z,28.21
2023-04-15T06:43:09.262Z,27.08
2023-04-15T06:44:09.275Z,26.01
2023-04-15T06:45:09.294Z,26.16
2023-04-15T06:46:09.404Z,25.02
2023-04-15T06:47:09.327Z,27.62
2023-04-15T06:48:09.342Z,27.26
2023-04-15T06:49:09.369Z,27.51
2023-04-15T06:50:09.424Z,27.59
2023-04-15T06:51:09.390Z,26.30
2023-04-15T06:52:09.422Z,27.11
2023-04-15T06:53:09.425Z,27.35
2023-04-15T06:54:09.446Z,27.63
2023-04-15T06:55:09.455Z,27.52
2023-04-15T06:56:09.468Z,28.53
2023-04-15T06:57:09.498Z,25.20
2023-04-15T06:58:09.501Z,28.72
2023-04-15T06:59:09.526Z,27.80
2023-04-15T07:00:09.535Z,26.32
2023-04-15T07:01:09.564Z,26.45
2023-04-15T07:02:09.583Z,27.38
2023-04-15T07:03:09.612Z,25.72
2023-04-15T07:04:09.622Z,25.00
2023-04-15T07:05:09.610Z,30.15
2023-04-15T07:06:09.600Z,29.09
2023-04-15T07:07:09.616Z,30.99
2023-04-15T07:08:09.644Z,28.69
2023-04-15T07:09:09.644Z,28.63
2023-04-15T07:10:09.656Z,28.11
2023-04-15T07:11:09.653Z,26.51
2023-04-15T07:12:09.664Z,26.57
2023-04-15T07:13:09.674Z,28.35
2023-04-15T07:14:09.679Z,27.91
2023-04-15T07:15:09.690Z,26.82
2023-04-15T07:16:09.730Z,25.98
2023-04-15T07:17:09.783Z,28.83
2023-04-15T07:18:09.723Z,26.12
2023-04-15T07:19:09.800Z,27.22
2023-04-15T07:20:09.873Z,26.75
2023-04-15T07:21:09.741Z,25.72
2023-04-15T07:22:09.742Z,27.67
2023-04-15T07:23:09.777Z,27.35
2023-04-15T07:24:09.763Z,25.67
2023-04-15T07:25:09.770Z,27.74
2023-04-15T07:26:09.777Z,25.00
2023-04-15T07:27:09.786Z,27.91
2023-04-15T07:28:09.784Z,28.03
2023-04-15T07:29:09.786Z,26.49
2023-04-15T07:30:09.818Z,27.35
2023-04-15T07:31:09.864Z,27.45
2023-04-15T07:32:09.800Z,28.19
2023-04-15T07:33:09.807Z,26.81
2023-04-15T07:34:09.823Z,25.31
2023-04-15T07:35:09.846Z,28.54
2023-04-15T07:36:09.818Z,25.82
2023-04-15T07:37:09.836Z,27.23
2023-04-15T07:38:09.845Z,27.25
2023-04-15T07:39:09.825Z,27.89
2023-04-15T07:40:09.826Z,27.93
2023-04-15T07:41:09.831Z,27.34
2023-04-15T07:42:09.861Z,26.75
2023-04-15T07:43:09.854Z,25.94
2023-04-15T07:44:09.853Z,27.22
2023-04-15T07:45:09.866Z,25.25
2023-04-15T07:46:09.901Z,26.22
2023-04-15T07:47:09.879Z,27.48
2023-04-15T07:48:09.878Z,27.33
2023-04-15T07:49:09.879Z,29.84
2023-04-15T07:50:10.872Z,25.92
2023-04-15T07:51:09.880Z,27.54
2023-04-15T07:52:09.890Z,26.42
2023-04-15T07:53:09.917Z,25.61
2023-04-15T07:54:09.903Z,28.46
2023-04-15T07:55:09.911Z,26.38
2023-04-15T07:56:09.929Z,28.15
2023-04-15T07:57:09.941Z,26.12
2023-04-15T07:58:09.920Z,27.42
2023-04-15T07:59:09.946Z,25.07
2023-04-15T08:00:09.941Z,27.10
2023-04-15T08:01:09.931Z,27.43
2023-04-15T08:02:10.029Z,26.55
2023-04-15T08:03:10.133Z,26.83
2023-04-15T08:04:10.122Z,26.54
2023-04-15T08:05:09.993Z,26.74
2023-04-15T08:06:09.967Z,27.86
2023-04-15T08:07:10.036Z,27.00
2023-04-15T08:08:09.981Z,28.33
2023-04-15T08:09:09.979Z,27.44
2023-04-15T08:10:09.986Z,25.49
2023-04-15T08:11:09.975Z,27.51
2023-04-15T08:12:09.972Z,25.77
2023-04-15T08:13:09.969Z,27.45
2023-04-15T08:14:09.976Z,26.83
2023-04-15T08:15:09.976Z,25.94
2023-04-15T08:16:10.000Z,25.03
2023-04-15T08:17:09.953Z,28.10
2023-04-15T08:18:09.963Z,26.12
2023-04-15T08:19:09.951Z,25.70
2023-04-15T08:20:09.961Z,27.35
2023-04-15T08:21:09.968Z,25.73
2023-04-15T08:22:10.471Z,25.73
2023-04-15T08:23:10.930Z,25.82
2023-04-15T08:24:09.907Z,26.11
2023-04-15T08:25:09.880Z,26.17
2023-04-15T08:26:09.852Z,27.18
2023-04-15T08:27:09.826Z,27.33
2023-04-15T08:28:09.787Z,25.78
2023-04-15T08:29:09.760Z,27.01
2023-04-15T08:30:09.717Z,26.88
2023-04-15T08:31:09.800Z,26.34
2023-04-15T08:32:09.654Z,26.43
2023-04-15T08:33:09.612Z,25.22
2023-04-15T08:34:09.573Z,26.50
2023-04-15T08:35:09.545Z,27.36
2023-04-15T08:36:09.506Z,26.78
2023-04-15T08:37:10.915Z,27.02
2023-04-15T08:38:09.440Z,25.71
2023-04-15T08:39:09.410Z,27.79
2023-04-15T08:40:09.390Z,28.08
2023-04-15T08:41:09.346Z,26.89
2023-04-15T08:42:09.321Z,25.95
2023-04-15T08:43:09.296Z,28.30
2023-04-15T08:44:09.255Z,25.69
2023-04-15T08:45:09.226Z,27.00
2023-04-15T08:46:09.198Z,25.57
2023-04-15T08:47:09.288Z,26.07
2023-04-15T08:48:09.151Z,26.41
2023-04-15T08:49:09.126Z,26.40
2023-04-15T08:50:09.091Z,27.75
2023-04-15T08:51:09.052Z,26.99
2023-04-15T08:52:09.034Z,26.06
2023-04-15T08:53:08.992Z,25.41
2023-04-15T08:54:08.961Z,25.32
2023-04-15T08:55:08.932Z,25.24
2023-04-15T08:56:08.900Z,25.15
2023-04-15T08:57:08.864Z,25.53
2023-04-15T08:58:08.833Z,25.41
2023-04-15T08:59:08.902Z,28.12
2023-04-15T09:00:08.782Z,26.87
2023-04-15T09:01:08.755Z,26.57
2023-04-15T09:02:08.757Z,27.30
2023-04-15T09:03:08.836Z,28.95
2023-04-15T09:04:08.719Z,28.11
2023-04-15T09:05:08.630Z,26.24
2023-04-15T09:06:08.581Z,26.59
2023-04-15T09:07:08.547Z,27.00
2023-04-15T09:08:08.575Z,27.59
2023-04-15T09:09:08.471Z,27.33
2023-04-15T09:10:08.450Z,26.43
2023-04-15T09:11:08.409Z,26.26
2023-04-15T09:12:08.364Z,26.95
2023-04-15T09:13:08.332Z,27.91
2023-04-15T09:14:08.377Z,27.45
2023-04-15T09:15:08.278Z,26.88
2023-04-15T09:16:08.520Z,26.00
2023-04-15T09:17:08.214Z,26.51
2023-04-15T09:18:08.193Z,26.37
2023-04-15T09:19:08.146Z,26.19
2023-04-15T09:20:08.119Z,27.13
2023-04-15T09:21:08.074Z,27.50
2023-04-15T09:22:08.052Z,26.65
2023-04-15T09:23:08.021Z,28.22
2023-04-15T09:24:08.004Z,25.64
2023-04-15T09:25:07.956Z,25.77
2023-04-15T09:26:07.928Z,26.84
2023-04-15T09:27:07.880Z,26.08
2023-04-15T09:28:07.872Z,25.84
2023-04-15T09:29:07.904Z,26.20
2023-04-15T09:30:07.802Z,26.23
2023-04-15T09:31:07.841Z,27.71
2023-04-15T09:32:07.709Z,26.98
2023-04-15T09:33:07.693Z,26.17
2023-04-15T09:34:07.650Z,26.43
2023-04-15T09:35:07.610Z,27.51
2023-04-15T09:36:08.413Z,27.48
2023-04-15T09:37:07.961Z,28.06
2023-04-15T09:38:07.602Z,27.00
2023-04-15T09:39:07.500Z,27.54
2023-04-15T09:40:07.472Z,26.43
2023-04-15T09:41:07.437Z,25.78
2023-04-15T09:42:07.400Z,27.38
2023-04-15T09:43:07.362Z,26.13
2023-04-15T09:44:07.319Z,26.98
2023-04-15T09:45:07.280Z,25.00
2023-04-15T09:46:07.315Z,25.81
2023-04-15T09:47:07.216Z,26.19
2023-04-15T09:48:07.268Z,27.28
2023-04-15T09:49:07.153Z,27.40
2023-04-15T09:50:07.424Z,26.97
2023-04-15T09:51:07.095Z,26.17
2023-04-15T09:52:07.104Z,26.96
2023-04-15T09:53:07.006Z,27.61
2023-04-15T09:54:06.956Z,27.27
2023-04-15T09:55:06.932Z,25.00
2023-04-15T09:56:06.886Z,27.17
2023-04-15T09:57:06.864Z,26.26
2023-04-15T09:58:06.818Z,27.82
2023-04-15T09:59:06.794Z,26.84
2023-04-15T10:00:06.745Z,27.37
2023-04-15T10:01:06.733Z,26.50
2023-04-15T10:02:06.751Z,27.02
2023-04-15T10:03:06.713Z,27.03
2023-04-15T10:04:07.100Z,29.35
2023-04-15T10:05:06.563Z,25.55
2023-04-15T10:06:06.529Z,26.83
2023-04-15T10:07:06.472Z,26.62
2023-04-15T10:08:06.427Z,28.01
2023-04-15T10:09:06.919Z,28.53
2023-04-15T10:10:06.373Z,26.34
2023-04-15T10:11:06.350Z,27.70
2023-04-15T10:12:06.301Z,27.69
2023-04-15T10:13:06.272Z,27.37
2023-04-15T10:14:06.228Z,26.94
2023-04-15T10:15:06.191Z,26.75
2023-04-15T10:16:06.222Z,26.94
2023-04-15T10:17:06.120Z,25.94
2023-04-15T10:18:06.115Z,29.10
2023-04-15T10:19:06.053Z,27.57
2023-04-15T10:20:06.017Z,28.31
2023-04-15T10:21:05.985Z,27.96
2023-04-15T10:22:05.958Z,27.00
2023-04-15T10:23:06.878Z,28.16
2023-04-15T10:24:05.871Z,29.37
2023-04-15T10:25:05.853Z,27.58
2023-04-15T10:26:05.812Z,28.15
2023-04-15T10:27:05.803Z,27.68
2023-04-15T10:28:05.745Z,27.44
2023-04-15T10:29:05.712Z,28.18
2023-04-15T10:30:05.680Z,28.16
2023-04-15T10:31:05.665Z,27.88
2023-04-15T10:32:05.593Z,27.32
2023-04-15T10:33:05.565Z,26.26
2023-04-15T10:34:05.566Z,27.63
2023-04-15T10:35:05.501Z,27.41
2023-04-15T10:36:05.479Z,29.33
2023-04-15T10:37:05.439Z,28.61
2023-04-15T10:38:05.403Z,27.66
2023-04-15T10:39:05.367Z,27.41
2023-04-15T10:40:05.344Z,28.87
2023-04-15T10:41:05.298Z,29.61
2023-04-15T10:42:05.256Z,28.33
2023-04-15T10:43:05.233Z,27.99
2023-04-15T10:44:05.425Z,26.67
2023-04-15T10:45:05.152Z,27.43
2023-04-15T10:46:05.161Z,29.17
2023-04-15T10:47:05.089Z,26.47
2023-04-15T10:48:05.082Z,27.31
2023-04-15T10:49:05.024Z,29.26
2023-04-15T10:50:05.008Z,28.49
2023-04-15T10:51:04.965Z,28.21
2023-04-15T10:52:04.911Z,27.89
2023-04-15T10:53:04.886Z,27.37
2023-04-15T10:54:05.023Z,26.97
2023-04-15T10:55:04.820Z,29.10
2023-04-15T10:56:04.791Z,27.64
2023-04-15T10:57:04.754Z,27.31
2023-04-15T10:58:04.727Z,28.09
2023-04-15T10:59:04.704Z,26.73
2023-04-15T11:00:04.667Z,28.68
2023-04-15T11:01:04.603Z,28.24
2023-04-15T11:02:04.610Z,28.01
2023-04-15T11:03:04.687Z,28.26
2023-04-15T11:04:04.699Z,27.79
2023-04-15T11:05:04.494Z,27.28
2023-04-15T11:06:04.404Z,28.01
2023-04-15T11:07:04.356Z,29.30
2023-04-15T11:08:04.314Z,28.36
2023-04-15T11:09:04.277Z,27.36
2023-04-15T11:10:04.240Z,26.87
2023-04-15T11:11:04.235Z,27.20
2023-04-15T11:12:04.155Z,26.91
2023-04-15T11:13:04.134Z,28.82
2023-04-15T11:14:04.230Z,25.29
2023-04-15T11:15:04.049Z,27.14
2023-04-15T11:16:04.066Z,26.90
2023-04-15T11:17:03.986Z,25.96
2023-04-15T11:18:03.982Z,29.10
2023-04-15T11:19:03.932Z,27.20
2023-04-15T11:20:03.882Z,28.75
2023-04-15T11:21:03.848Z,27.11
2023-04-15T11:22:03.806Z,27.34
2023-04-15T11:23:14.008Z,28.72
2023-04-15T11:24:05.010Z,28.87
2023-04-15T11:25:03.695Z,29.19
2023-04-15T11:26:03.682Z,28.94
2023-04-15T11:27:03.628Z,29.45
2023-04-15T11:28:03.599Z,30.64
2023-04-15T11:29:03.871Z,28.62
2023-04-15T11:30:03.502Z,28.58
2023-04-15T11:31:03.471Z,29.02
2023-04-15T11:32:03.485Z,28.00
2023-04-15T11:33:03.448Z,27.77
2023-04-15T11:34:03.373Z,29.20
2023-04-15T11:35:03.325Z,27.07
2023-04-15T11:36:03.293Z,26.92
2023-04-15T11:37:03.268Z,26.98
2023-04-15T11:38:03.205Z,30.12
2023-04-15T11:39:03.166Z,26.36
2023-04-15T11:40:03.173Z,25.55
2023-04-15T11:41:03.104Z,27.50
2023-04-15T11:42:03.063Z,28.70
2023-04-15T11:43:03.023Z,27.40
2023-04-15T11:44:03.163Z,28.17
2023-04-15T11:45:02.955Z,30.35
2023-04-15T11:46:02.956Z,27.90
2023-04-15T11:47:02.876Z,28.91
2023-04-15T11:48:02.848Z,29.44
2023-04-15T11:49:02.788Z,26.34
2023-04-15T11:50:02.750Z,27.99
2023-04-15T11:51:02.767Z,29.30
2023-04-15T11:52:02.677Z,28.64
2023-04-15T11:53:02.646Z,28.23
2023-04-15T11:54:02.929Z,28.46
2023-04-15T11:55:02.565Z,30.28
2023-04-15T11:56:02.541Z,27.13
2023-04-15T11:57:02.492Z,28.81
2023-04-15T11:58:02.452Z,27.52
2023-04-15T11:59:02.449Z,27.29
2023-04-15T12:00:02.368Z,28.05
2023-04-15T12:01:02.367Z,28.75
2023-04-15T12:02:02.350Z,29.04
2023-04-15T12:03:02.501Z,29.04
2023-04-15T12:04:02.586Z,29.26
2023-04-15T12:05:02.239Z,29.70
2023-04-15T12:06:02.187Z,26.79
2023-04-15T12:07:02.128Z,30.46
2023-04-15T12:08:02.880Z,28.13
2023-04-15T12:09:02.063Z,29.74
2023-04-15T12:10:02.062Z,29.84
2023-04-15T12:11:01.987Z,29.74
2023-04-15T12:12:01.946Z,30.01
2023-04-15T12:13:01.913Z,31.47
2023-04-15T12:14:02.151Z,29.53
2023-04-15T12:15:01.870Z,31.19
2023-04-15T12:16:01.849Z,28.75
2023-04-15T12:17:01.819Z,29.43
2023-04-15T12:18:01.786Z,31.59
2023-04-15T12:19:01.730Z,32.04
2023-04-15T12:20:01.714Z,31.38
2023-04-15T12:21:01.657Z,31.36
2023-04-15T12:22:01.607Z,29.76
2023-04-15T12:23:01.568Z,31.06
2023-04-15T12:24:01.531Z,30.81
2023-04-15T12:25:01.493Z,30.66
2023-04-15T12:26:01.467Z,27.48
2023-04-15T12:27:01.454Z,30.37
2023-04-15T12:28:01.404Z,30.33
2023-04-15T12:29:01.338Z,29.69
2023-04-15T12:30:01.311Z,29.33
2023-04-15T12:31:01.289Z,30.77
2023-04-15T12:32:01.209Z,31.60
2023-04-15T12:33:01.221Z,29.84
2023-04-15T12:34:01.141Z,29.34
2023-04-15T12:35:01.069Z,30.21
2023-04-15T12:36:01.039Z,31.49
2023-04-15T12:37:00.993Z,29.88
2023-04-15T12:38:00.959Z,30.82
2023-04-15T12:39:00.915Z,30.52
2023-04-15T12:40:00.889Z,31.16
2023-04-15T12:41:00.899Z,30.99
2023-04-15T12:42:00.810Z,31.31
2023-04-15T12:43:00.765Z,30.70
2023-04-15T12:44:00.732Z,30.19
2023-04-15T12:45:01.099Z,31.19
2023-04-15T12:46:00.670Z,31.86
2023-04-15T12:47:00.700Z,29.18
2023-04-15T12:48:00.641Z,31.95
2023-04-15T12:49:00.575Z,31.08
2023-04-15T12:50:00.522Z,31.51
2023-04-15T12:51:00.499Z,31.23
2023-04-15T12:52:00.460Z,31.95